Time;durP1;ratioP1;P1;durP2;ratioP2;P2;SDS_P1;SDS_P2;PMS_P1;PMS_P2;Temp;Humidity;BMP_temperature;BMP_pressure;BME280_temperature;BME280_humidity;BME280_pressure;Samples;Min_cycle;Max_cycle;Signal;HPM_P1;HPM_P2
2022/05/02 00:02:26;;;;;;;4.40;2.90;;;;;;;14.10;66.00;101600.69;5001540;28;103862;-48
2022/05/02 00:04:55;;;;;;;4.13;3.33;;;;;;;14.11;66.12;101591.38;5013690;28;102639;-49
2022/05/02 00:07:21;;;;;;;3.22;2.92;;;;;;;14.10;66.38;101588.91;5012987;28;102008;-48
2022/05/02 00:09:51;;;;;;;3.13;2.83;;;;;;;14.10;66.06;101592.47;5012540;28;103733;-48
2022/05/02 00:12:19;;;;;;;3.28;2.97;;;;;;;14.10;66.15;101597.09;4998414;28;104014;-49
2022/05/02 00:14:46;;;;;;;4.07;3.20;;;;;;;14.09;65.98;101590.81;5013513;28;101964;-49
2022/05/02 00:17:12;;;;;;;3.63;3.00;;;;;;;14.10;66.22;101592.47;5013848;28;101993;-48
2022/05/02 00:19:38;;;;;;;3.35;3.05;;;;;;;14.09;66.21;101588.09;5009972;28;102221;-50
2022/05/02 00:22:05;;;;;;;3.15;2.85;;;;;;;14.10;66.19;101600.69;4993516;28;103641;-53
2022/05/02 00:24:37;;;;;;;3.90;3.08;;;;;;;14.10;66.18;101583.44;4993897;28;102274;-49
2022/05/02 00:27:07;;;;;;;3.08;2.80;;;;;;;14.09;66.29;101590.81;4993297;28;102520;-51
2022/05/02 00:29:33;;;;;;;3.67;2.50;;;;;;;14.11;66.17;101590.56;4997593;28;102212;-49
2022/05/02 00:32:00;;;;;;;3.45;3.15;;;;;;;14.10;66.16;101597.97;4993588;28;103891;-49
2022/05/02 00:34:28;;;;;;;3.80;3.30;;;;;;;14.10;66.43;101592.47;5002020;28;101938;-52
2022/05/02 00:36:54;;;;;;;3.50;3.20;;;;;;;14.09;66.48;101585.34;5000259;28;102351;-50
2022/05/02 00:39:21;;;;;;;3.65;3.20;;;;;;;14.10;66.17;101597.09;5008345;28;102190;-49
2022/05/02 00:41:47;;;;;;;3.80;3.42;;;;;;;14.09;66.10;101590.81;5000983;28;103865;-51
2022/05/02 00:44:15;;;;;;;3.08;2.78;;;;;;;14.10;66.39;101588.91;5002844;28;101843;-49
2022/05/02 00:46:42;;;;;;;3.40;3.10;;;;;;;14.09;66.17;101588.09;4993111;28;102158;-49
2022/05/02 00:49:08;;;;;;;3.42;3.13;;;;;;;14.09;66.39;101590.81;4993372;28;102371;-50
2022/05/02 00:51:35;;;;;;;3.33;2.70;;;;;;;14.09;66.25;101590.81;4991940;28;103809;-48
2022/05/02 00:54:01;;;;;;;3.08;2.78;;;;;;;14.08;66.57;101586.44;5005145;28;102384;-49
2022/05/02 00:56:28;;;;;;;3.42;2.90;;;;;;;14.09;66.48;101587.25;5012703;28;101866;-50
2022/05/02 00:58:55;;;;;;;4.05;3.08;;;;;;;14.08;66.10;101586.44;5003018;28;102212;-49
2022/05/02 01:01:23;;;;;;;3.08;2.83;;;;;;;14.08;66.26;101589.19;4992338;28;104029;-48
2022/05/02 01:03:50;;;;;;;3.17;2.83;;;;;;;14.09;66.30;101581.78;5010041;28;102178;-49
2022/05/02 01:09:02;;;;;;;3.53;2.92;;;;;;;14.09;66.44;101588.09;4993990;28;102288;-48
2022/05/02 01:11:30;;;;;;;3.38;3.05;;;;;;;14.08;66.36;101572.75;5004767;28;103981;-49
2022/05/02 01:13:57;;;;;;;3.33;3.03;;;;;;;14.08;66.37;101580.97;4992608;28;102416;-48
2022/05/02 01:16:27;;;;;;;4.72;2.95;;;;;;;14.06;66.50;101572.19;4992408;28;102371;-48
2022/05/02 01:18:55;;;;;;;3.08;2.78;;;;;;;14.08;66.25;101575.50;4993291;28;102400;-50
2022/05/02 01:21:29;;;;;;;3.22;2.92;;;;;;;14.09;66.48;101568.91;4992391;28;103867;-49
2022/05/02 01:23:59;;;;;;;3.70;2.97;;;;;;;14.08;66.43;101572.75;4992483;28;102580;-49
2022/05/02 01:26:26;;;;;;;3.80;2.63;;;;;;;14.08;66.42;101561.00;5004505;28;101923;-49
2022/05/02 01:28:55;;;;;;;2.83;2.50;;;;;;;14.08;66.58;101561.00;5011891;28;102369;-49
2022/05/02 01:31:21;;;;;;;3.47;3.17;;;;;;;14.08;66.41;101559.06;5011692;28;103987;-49
2022/05/02 01:33:50;;;;;;;2.92;2.63;;;;;;;14.07;66.38;101565.66;4992942;28;101919;-50
2022/05/02 01:36:20;;;;;;;3.27;2.97;;;;;;;14.08;66.39;101566.47;4992303;28;102105;-48
2022/05/02 01:38:49;;;;;;;3.35;2.97;;;;;;;14.07;66.43;101565.66;4995503;28;102041;-49
2022/05/02 01:41:16;;;;;;;3.47;3.17;;;;;;;14.07;66.38;101557.44;4993893;28;106224;-49
2022/05/02 01:43:45;;;;;;;3.13;2.83;;;;;;;14.07;66.23;101562.09;4992470;28;102398;-50
2022/05/02 01:46:13;;;;;;;3.25;2.95;;;;;;;14.07;66.25;101557.44;4992028;28;102358;-49
2022/05/02 01:48:40;;;;;;;2.90;2.70;;;;;;;14.07;66.58;101560.19;4997704;28;102743;-49
2022/05/02 01:51:06;;;;;;;3.10;2.80;;;;;;;14.07;66.54;101548.41;5011416;28;104033;-49
2022/05/02 01:53:34;;;;;;;4.40;3.10;;;;;;;14.07;66.45;101557.44;5010374;28;102523;-52
2022/05/02 01:56:02;;;;;;;3.10;2.83;;;;;;;14.07;66.61;101559.38;4992438;28;102548;-51
2022/05/02 01:58:29;;;;;;;3.00;2.70;;;;;;;14.08;66.43;101561.81;5002382;28;102289;-49
2022/05/02 02:00:55;;;;;;;3.55;3.25;;;;;;;14.07;66.28;101560.19;5011852;28;104052;-49
2022/05/02 02:03:23;;;;;;;3.17;2.83;;;;;;;14.07;66.19;101560.19;5001138;28;102351;-48
2022/05/02 02:05:49;;;;;;;3.30;3.03;;;;;;;14.07;66.22;101548.41;4989595;28;101970;-48
2022/05/02 02:08:17;;;;;;;3.10;2.80;;;;;;;14.07;66.66;101554.72;4991067;28;102510;-48
2022/05/02 02:10:44;;;;;;;5.05;2.80;;;;;;;14.06;66.65;101542.09;4997989;28;103905;-48
2022/05/02 02:13:12;;;;;;;3.03;2.72;;;;;;;14.07;66.40;101548.41;4991698;28;102110;-48
2022/05/02 02:15:42;;;;;;;3.00;2.53;;;;;;;14.08;66.51;101544.56;4992311;28;102010;-49
2022/05/02 02:18:09;;;;;;;3.00;2.70;;;;;;;14.07;66.40;101542.94;4992141;28;102152;-48
2022/05/02 02:20:36;;;;;;;4.00;2.80;;;;;;;14.07;66.54;101543.75;4991143;28;104046;-51
2022/05/02 02:23:03;;;;;;;4.43;3.25;;;;;;;14.07;66.56;101537.47;4992329;28;102669;-48
2022/05/02 02:25:31;;;;;;;3.17;2.88;;;;;;;14.06;66.25;101542.09;4990272;28;102011;-48
2022/05/02 02:27:59;;;;;;;3.03;2.72;;;;;;;14.07;66.33;101542.94;4991816;28;102638;-50
2022/05/02 02:30:26;;;;;;;3.20;2.90;;;;;;;14.06;66.47;101536.63;4990610;28;104029;-49
2022/05/02 02:32:53;;;;;;;2.80;2.60;;;;;;;14.06;66.61;101539.34;4992132;28;102016;-49
2022/05/02 02:35:20;;;;;;;3.63;3.33;;;;;;;14.07;66.44;101540.19;5003162;28;102875;-49
2022/05/02 02:37:47;;;;;;;2.67;2.47;;;;;;;14.06;66.42;101536.63;4996566;28;102259;-48
2022/05/02 02:40:14;;;;;;;3.22;2.70;;;;;;;14.06;66.28;101544.84;4990555;28;103855;-50
2022/05/02 02:42:41;;;;;;;3.13;2.83;;;;;;;14.04;66.46;101533.34;4991228;28;101989;-51
2022/05/02 02:45:09;;;;;;;2.80;2.60;;;;;;;14.04;66.43;101530.63;4991139;28;101943;-50
2022/05/02 02:47:37;;;;;;;2.92;2.65;;;;;;;14.05;66.33;101543.19;5005187;28;101961;-50
2022/05/02 02:50:04;;;;;;;3.05;2.75;;;;;;;14.06;66.65;101541.28;5010465;28;104024;-49
2022/05/02 02:52:31;;;;;;;2.92;2.70;;;;;;;14.06;66.63;101546.75;5010092;28;102052;-49
2022/05/02 02:54:57;;;;;;;4.25;3.30;;;;;;;14.05;66.70;101539.66;5010608;28;102303;-49
2022/05/02 02:57:24;;;;;;;2.92;2.67;;;;;;;14.06;66.34;101547.56;4994830;28;102752;-50
2022/05/02 02:59:50;;;;;;;3.20;2.90;;;;;;;14.06;66.38;101542.09;4990346;28;103916;-48
2022/05/02 03:02:17;;;;;;;3.10;2.78;;;;;;;14.05;66.60;101545.94;4991444;28;101907;-49
2022/05/02 03:07:31;;;;;;;3.30;3.00;;;;;;;14.05;66.53;101545.94;4992622;28;103677;-48
2022/05/02 03:09:58;;;;;;;3.20;2.90;;;;;;;14.06;66.77;101550.31;5010630;28;103910;-49
2022/05/02 03:12:25;;;;;;;3.42;3.13;;;;;;;14.04;66.60;101552.50;5011017;28;101956;-49
2022/05/02 03:14:51;;;;;;;3.33;3.00;;;;;;;14.04;66.62;101555.25;5010656;28;101926;-49
2022/05/02 03:17:18;;;;;;;3.20;2.90;;;;;;;14.05;66.20;101550.59;5011614;28;102018;-48
2022/05/02 03:19:47;;;;;;;3.00;2.65;;;;;;;14.04;66.46;101549.78;4990175;28;104290;-49
2022/05/02 03:22:14;;;;;;;2.83;2.63;;;;;;;14.04;66.67;101554.44;5005097;28;102359;-49
2022/05/02 03:24:40;;;;;;;2.97;2.67;;;;;;;14.04;66.54;101547.03;5009701;28;102541;-51
2022/05/02 03:27:07;;;;;;;3.50;3.05;;;;;;;14.04;66.40;101549.78;5005414;28;102727;-49
2022/05/02 03:29:33;;;;;;;3.25;2.55;;;;;;;14.04;66.39;101555.25;5012777;28;103603;-49
2022/05/02 03:32:00;;;;;;;3.10;2.80;;;;;;;14.03;66.74;101552.78;5014320;28;102917;-49
2022/05/02 03:34:26;;;;;;;3.30;2.88;;;;;;;14.04;66.45;101555.25;5013936;28;102811;-48
2022/05/02 03:36:54;;;;;;;3.25;2.92;;;;;;;14.04;66.61;101558.00;4995732;28;103048;-48
2022/05/02 03:39:21;;;;;;;3.25;2.90;;;;;;;14.03;66.71;101553.63;4993152;28;103964;-50
2022/05/02 03:41:47;;;;;;;4.28;2.70;;;;;;;14.04;66.67;101549.78;5005837;28;102535;-51
2022/05/02 03:44:13;;;;;;;3.30;3.00;;;;;;;14.05;66.59;101551.41;5009372;28;102408;-49
2022/05/02 03:46:40;;;;;;;3.35;2.92;;;;;;;14.04;66.56;101552.50;5005537;28;102060;-50
2022/05/02 03:49:06;;;;;;;3.22;2.92;;;;;;;14.04;66.31;101555.25;5013284;28;103915;-50
2022/05/02 03:51:33;;;;;;;2.97;2.67;;;;;;;14.07;66.54;101565.66;5014261;28;101889;-49
2022/05/02 03:54:01;;;;;;;3.13;2.85;;;;;;;14.05;66.22;101562.34;5007010;28;102380;-49
2022/05/02 03:56:28;;;;;;;4.53;2.58;;;;;;;14.06;66.26;101558.50;4995339;28;102195;-49
2022/05/02 03:58:54;;;;;;;3.78;3.00;;;;;;;14.07;66.23;101559.38;4993140;28;103917;-52
2022/05/02 04:01:21;;;;;;;3.40;2.90;;;;;;;14.07;66.38;101560.19;4994058;28;102200;-49
2022/05/02 04:03:47;;;;;;;3.35;3.05;;;;;;;14.07;66.30;101562.91;4998224;28;102437;-49
2022/05/02 04:06:14;;;;;;;2.97;2.42;;;;;;;14.08;66.19;101561.00;5008533;28;102348;-49
2022/05/02 04:08:41;;;;;;;2.92;2.63;;;;;;;14.08;66.19;101564.56;4993143;28;104051;-48
2022/05/02 04:11:09;;;;;;;2.70;2.35;;;;;;;14.08;66.25;101570.03;4994423;28;101817;-51
2022/05/02 04:13:36;;;;;;;2.90;2.60;;;;;;;14.08;66.40;101572.75;4993845;28;101942;-48
2022/05/02 04:16:03;;;;;;;2.80;2.47;;;;;;;14.09;66.00;101584.53;4994521;28;102423;-49
2022/05/02 04:18:29;;;;;;;3.05;2.75;;;;;;;14.09;66.07;101577.13;4993220;28;103867;-50
2022/05/02 04:20:55;;;;;;;3.40;3.10;;;;;;;14.09;65.94;101574.41;4994051;28;102122;-49
2022/05/02 04:23:22;;;;;;;3.22;2.92;;;;;;;14.09;66.07;101568.91;4993794;28;102207;-50
2022/05/02 04:25:49;;;;;;;3.85;3.25;;;;;;;14.09;65.79;101574.41;5010727;28;102328;-50
2022/05/02 04:28:17;;;;;;;3.25;2.95;;;;;;;14.11;65.86;101572.22;4993170;28;103851;-49
2022/05/02 04:30:44;;;;;;;2.78;2.58;;;;;;;14.11;65.81;101564.00;5004751;28;101950;-48
2022/05/02 04:33:12;;;;;;;3.55;2.53;;;;;;;14.12;65.78;101573.84;5007807;28;101974;-48
2022/05/02 04:35:39;;;;;;;4.25;3.08;;;;;;;14.12;65.88;101564.81;5004923;28;102317;-48
2022/05/02 04:38:05;;;;;;;3.55;2.67;;;;;;;14.12;65.76;101568.38;5000044;28;103788;-48
2022/05/02 04:40:33;;;;;;;3.25;2.95;;;;;;;14.14;66.09;101571.69;4993840;28;102445;-50
2022/05/02 04:42:59;;;;;;;3.72;3.10;;;;;;;14.15;65.87;101565.09;4993044;28;101932;-48
2022/05/02 04:45:28;;;;;;;4.18;3.50;;;;;;;14.16;66.08;101564.00;4993615;28;102117;-49
2022/05/02 04:47:57;;;;;;;2.95;2.70;;;;;;;14.18;65.87;101567.28;5013255;28;104542;-50
2022/05/02 04:50:23;;;;;;;3.85;2.95;;;;;;;14.16;65.88;101563.19;5003362;28;102318;-49
2022/05/02 04:52:50;;;;;;;2.95;2.65;;;;;;;14.19;65.77;101568.09;4993424;28;102405;-48
2022/05/02 04:55:16;;;;;;;2.85;2.65;;;;;;;14.19;65.72;101562.63;4993944;28;102530;-50
2022/05/02 04:57:44;;;;;;;2.83;2.53;;;;;;;14.19;65.75;101557.97;4992536;28;103959;-48
2022/05/02 05:00:14;;;;;;;3.05;2.75;;;;;;;14.23;65.99;101557.44;4993242;28;101819;-48
2022/05/02 05:02:42;;;;;;;2.97;2.75;;;;;;;14.24;65.77;101559.06;5006992;28;102606;-48
2022/05/02 05:05:09;;;;;;;3.72;2.80;;;;;;;14.24;65.71;101559.88;5014886;28;102516;-48
2022/05/02 05:07:36;;;;;;;2.88;2.63;;;;;;;14.27;65.73;101561.25;4998737;28;103914;-51
2022/05/02 05:10:03;;;;;;;3.13;2.80;;;;;;;14.28;65.89;101562.88;4998142;28;101990;-50
2022/05/02 05:12:53;;;;;;;3.85;2.83;;;;;;;14.30;65.99;101557.97;5012357;28;101903;-49
2022/05/02 05:18:34;;;;;;;3.15;2.80;;;;;;;14.33;65.89;101549.22;4992124;28;103951;-48
2022/05/02 05:21:04;;;;;;;3.53;3.00;;;;;;;14.35;65.67;101555.22;5007801;28;102009;-48
2022/05/02 05:24:07;;;;;;;3.15;2.85;;;;;;;14.37;65.92;101553.03;5012715;28;102551;-49
2022/05/02 05:26:44;;;;;;;3.53;3.22;;;;;;;14.38;65.96;101560.94;4993810;28;102263;-49
2022/05/02 05:29:23;;;;;;;3.42;3.13;;;;;;;14.41;65.33;101559.59;5005946;28;104343;-50
2022/05/02 05:31:52;;;;;;;;;;;;;;;14.41;65.51;101563.16;5009711;28;102212;-48
2022/05/02 05:34:31;;;;;;;4.28;2.70;;;;;;;14.44;65.54;101559.03;4993261;28;102546;-48
2022/05/02 05:37:40;;;;;;;3.20;2.90;;;;;;;14.47;65.75;101563.16;5003402;28;102198;-49
2022/05/02 05:40:16;;;;;;;3.22;2.90;;;;;;;14.48;65.47;101565.59;4956258;28;103852;-48
2022/05/02 05:42:54;;;;;;;4.35;2.92;;;;;;;14.49;65.78;101569.97;4988335;28;102971;-49
2022/05/02 05:45:31;;;;;;;3.58;3.25;;;;;;;14.52;65.45;101576.84;5014461;28;102045;-51
2022/05/02 05:48:11;;;;;;;3.85;3.03;;;;;;;14.53;65.62;101565.59;5004704;28;102006;-49
2022/05/02 05:50:47;;;;;;;3.50;3.20;;;;;;;14.55;65.78;101570.84;4994552;28;103960;-49
2022/05/02 05:53:19;;;;;;;3.08;2.83;;;;;;;14.56;65.43;101570.53;5011725;28;102239;-48
2022/05/02 05:56:10;;;;;;;3.45;3.05;;;;;;;14.57;65.93;101572.19;5005604;28;102068;-48
2022/05/02 05:58:46;;;;;;;2.97;2.67;;;;;;;14.58;65.54;101571.09;5006616;28;102149;-49
2022/05/02 06:01:20;;;;;;;3.55;3.00;;;;;;;14.59;65.60;101570.00;4995503;28;103940;-48
2022/05/02 06:03:59;;;;;;;3.45;3.15;;;;;;;14.60;65.76;101573.53;5012529;28;101928;-48
2022/05/02 06:06:29;;;;;;;3.25;2.90;;;;;;;14.62;65.59;101572.19;5012189;28;102026;-49
2022/05/02 06:08:58;;;;;;;3.25;2.95;;;;;;;14.63;65.80;101562.84;5007965;28;102512;-49
2022/05/02 06:11:27;;;;;;;3.70;3.40;;;;;;;14.65;65.50;101568.88;4999223;28;103942;-49
2022/05/02 06:13:56;;;;;;;3.40;3.10;;;;;;;14.64;65.78;101567.25;5009583;28;102417;-48
2022/05/02 06:19:15;;;;;;;3.50;3.20;;;;;;;14.66;65.60;101570.53;5009358;28;101957;-48
2022/05/02 06:21:43;;;;;;;3.92;3.53;;;;;;;14.69;65.38;101573.81;5006537;27;105701;-49
2022/05/02 06:24:13;;;;;;;3.40;3.20;;;;;;;14.69;65.75;101571.06;5010193;28;101930;-49
2022/05/02 06:26:41;;;;;;;3.63;3.33;;;;;;;14.71;65.76;101568.88;5010631;28;102088;-48
2022/05/02 06:29:09;;;;;;;3.53;3.22;;;;;;;14.72;65.50;101570.53;5011034;28;102217;-51
2022/05/02 06:31:37;;;;;;;4.13;3.70;;;;;;;14.74;65.71;101571.06;5000389;28;103869;-49
2022/05/02 06:34:06;;;;;;;3.90;3.60;;;;;;;14.73;65.77;101569.41;5007855;28;102025;-50
2022/05/02 06:36:54;;;;;;;3.58;3.28;;;;;;;14.73;65.36;101570.22;4996936;28;102079;-49
2022/05/02 06:39:31;;;;;;;3.25;2.95;;;;;;;14.75;65.40;101569.94;5002777;28;102728;-48
2022/05/02 06:42:13;;;;;;;4.50;3.63;;;;;;;14.76;65.83;101571.59;5022231;28;103873;-48
2022/05/02 06:44:51;;;;;;;3.70;3.40;;;;;;;14.78;65.72;101574.88;5024179;28;102511;-48
2022/05/02 06:47:26;;;;;;;5.53;3.28;;;;;;;14.78;65.34;101564.72;5019395;28;102462;-49
2022/05/02 06:49:57;;;;;;;4.03;3.70;;;;;;;14.80;65.49;101565.28;5017673;28;102331;-48
2022/05/02 06:52:32;;;;;;;4.13;3.70;;;;;;;14.83;65.77;101572.13;5006375;28;103827;-49
2022/05/02 06:55:11;;;;;;;4.25;3.85;;;;;;;14.82;65.37;101565.84;5010161;28;102505;-49
2022/05/02 06:57:55;;;;;;;4.05;3.65;;;;;;;14.83;65.53;101569.41;5001105;28;102514;-49
2022/05/02 07:00:22;;;;;;;3.95;3.40;;;;;;;14.83;65.69;101569.41;5009481;28;102560;-49
2022/05/02 07:03:11;;;;;;;3.75;3.42;;;;;;;14.85;65.44;101569.91;5010246;28;103844;-49
2022/05/02 07:05:47;;;;;;;3.92;3.58;;;;;;;14.87;65.48;101568.53;5011202;28;102365;-48
2022/05/02 07:08:22;;;;;;;4.03;3.72;;;;;;;14.89;65.36;101565.50;4997571;28;102285;-48
2022/05/02 07:10:55;;;;;;;4.03;3.55;;;;;;;14.90;65.32;101567.19;5003300;28;104127;-48
2022/05/02 07:13:35;;;;;;;4.10;3.75;;;;;;;14.91;65.61;101574.28;5009784;28;103930;-49
2022/05/02 07:16:21;;;;;;;5.80;3.30;;;;;;;14.92;65.11;101570.44;4990897;28;104081;-48
2022/05/02 07:19:07;;;;;;;5.32;4.05;;;;;;;14.92;65.43;101573.19;4996645;28;102593;-48
2022/05/02 07:21:42;;;;;;;3.75;3.35;;;;;;;14.94;65.58;101572.91;5007145;28;104630;-49
2022/05/02 07:24:45;;;;;;;5.05;3.30;;;;;;;14.96;65.25;101570.69;4998725;27;103895;-49
2022/05/02 07:27:23;;;;;;;5.53;4.00;;;;;;;14.96;65.31;101563.28;5004133;28;102034;-51
2022/05/02 07:29:51;;;;;;;4.80;3.83;;;;;;;14.98;65.20;101568.50;5006151;28;102585;-49
2022/05/02 07:32:21;;;;;;;3.95;3.60;;;;;;;14.97;65.49;101567.69;5003861;28;102019;-52
2022/05/02 07:34:49;;;;;;;4.32;3.35;;;;;;;14.97;65.31;101567.69;4992181;28;103737;-51
2022/05/02 07:37:19;;;;;;;4.57;3.55;;;;;;;14.98;65.67;101574.81;4999548;28;102124;-49
2022/05/02 07:39:49;;;;;;;3.47;3.17;;;;;;;14.99;65.29;101560.00;4996382;28;102110;-52
2022/05/02 07:42:16;;;;;;;4.22;3.83;;;;;;;14.99;65.30;101568.22;5009565;28;103945;-50
2022/05/02 07:44:44;;;;;;;4.07;3.67;;;;;;;14.99;65.61;101562.75;5011705;28;104044;-49
2022/05/02 07:47:13;;;;;;;3.75;3.45;;;;;;;15.01;65.60;101563.28;5010742;28;101995;-49
2022/05/02 07:49:43;;;;;;;3.88;3.58;;;;;;;15.01;65.55;101557.81;4996580;28;102087;-50
2022/05/02 07:52:12;;;;;;;4.15;3.75;;;;;;;15.01;65.43;101557.81;5004507;28;102496;-49
2022/05/02 07:54:41;;;;;;;3.88;3.47;;;;;;;15.01;65.54;101562.47;4998927;28;104050;-48
2022/05/02 07:57:11;;;;;;;4.72;3.70;;;;;;;15.02;65.61;101550.41;5000757;28;101928;-49
2022/05/02 07:59:40;;;;;;;4.60;3.75;;;;;;;15.02;65.62;101559.44;5001059;28;102071;-49
2022/05/02 08:02:07;;;;;;;4.10;3.72;;;;;;;15.02;65.53;101553.97;5002873;28;102507;-49
2022/05/02 08:04:36;;;;;;;4.50;4.10;;;;;;;15.02;65.03;101548.47;5003327;28;104094;-50
2022/05/02 08:07:12;;;;;;;4.15;3.75;;;;;;;15.02;65.55;101559.44;4998496;28;102051;-49
2022/05/02 08:10:18;;;;;;;4.47;3.78;;;;;;;15.01;65.62;101562.47;5007032;28;102538;-48
2022/05/02 08:12:53;;;;;;;4.30;3.60;;;;;;;14.99;65.31;101554.50;5004641;28;102569;-48
2022/05/02 08:15:24;;;;;;;3.90;3.55;;;;;;;14.99;65.09;101550.97;5009895;28;103832;-49
2022/05/02 08:18:24;;;;;;;3.85;3.55;;;;;;;14.98;65.55;101552.06;5002813;28;102528;-49
2022/05/02 08:20:55;;;;;;;3.72;3.42;;;;;;;14.97;65.56;101555.91;4998885;28;102887;-50
2022/05/02 08:29:38;;;;;;;3.85;3.50;;;;;;;14.94;65.54;101543.59;5003598;28;105792;-58
2022/05/02 08:32:08;;;;;;;6.68;4.07;;;;;;;14.95;64.51;101542.47;5013836;28;102301;-53
2022/05/02 08:34:43;;;;;;;7.47;4.25;;;;;;;14.95;64.09;101537.00;5007097;28;102295;-47
2022/05/02 08:37:36;;;;;;;8.35;4.13;;;;;;;14.97;62.38;101540.28;4997944;28;103844;-51
2022/05/02 08:40:12;;;;;;;5.32;4.07;;;;;;;14.94;63.01;101542.78;4997821;28;102819;-50
2022/05/02 08:43:17;;;;;;;5.38;3.88;;;;;;;14.90;63.48;101546.06;5013207;28;102342;-48
2022/05/02 08:46:17;;;;;;;6.20;4.28;;;;;;;14.90;63.02;101534.28;5013987;28;102714;-51
2022/05/02 08:49:33;;;;;;;8.15;4.10;;;;;;;14.87;62.61;101524.69;5000375;28;104000;-47
2022/05/02 08:52:49;;;;;;;7.22;4.10;;;;;;;14.87;62.10;101526.63;4993514;28;102029;-48
2022/05/02 08:55:47;;;;;;;4.90;4.00;;;;;;;14.85;61.98;101531.56;5001349;28;102239;-51
2022/05/02 08:58:37;;;;;;;;;;;;;;;14.84;62.33;101529.91;5001260;28;102851;-47
2022/05/02 09:01:27;;;;;;;6.80;4.43;;;;;;;14.84;61.64;101535.41;5011971;28;103926;-48
2022/05/02 09:04:38;;;;;;;5.93;4.10;;;;;;;14.82;61.18;101526.63;5007972;28;102513;-48
2022/05/02 09:07:48;;;;;;;6.10;4.15;;;;;;;14.81;60.79;101514.03;4964714;28;102397;-47
2022/05/02 09:10:17;;;;;;;4.50;4.05;;;;;;;14.79;60.17;101519.00;4993138;28;102605;-48
2022/05/02 09:13:15;;;;;;;4.55;4.13;;;;;;;14.77;61.17;101527.47;4998381;28;104222;-48
2022/05/02 09:16:21;;;;;;;4.10;3.63;;;;;;;14.76;60.45;101527.75;4994347;28;101993;-47
2022/05/02 09:19:17;;;;;;;5.97;3.28;;;;;;;14.75;60.13;101521.47;5009949;28;102547;-47
2022/05/02 09:22:08;;;;;;;5.45;3.80;;;;;;;14.73;59.45;101525.56;4981639;28;102219;-45
2022/05/02 09:25:03;;;;;;;5.90;3.70;;;;;;;14.71;59.59;101519.53;5000405;28;104071;-48
2022/05/02 09:27:54;;;;;;;4.68;3.10;;;;;;;14.71;59.34;101525.03;5012361;28;101745;-47
2022/05/02 09:31:14;;;;;;;5.55;3.50;;;;;;;14.69;59.54;101532.72;4983149;28;102583;-46
2022/05/02 09:33:50;;;;;;;4.05;3.10;;;;;;;14.67;59.98;101530.25;4939228;28;102058;-48
2022/05/02 09:36:29;;;;;;;6.70;3.90;;;;;;;14.68;59.90;101525.56;4937140;28;104020;-47
2022/05/02 09:39:14;;;;;;;5.40;3.67;;;;;;;14.65;59.51;101533.28;4992679;28;102434;-47
2022/05/02 09:42:13;;;;;;;5.30;3.40;;;;;;;14.66;60.54;101531.34;4992554;28;102438;-48
2022/05/02 09:51:40;;;;;;;7.18;4.07;;;;;;;14.63;59.82;101529.97;5012347;28;102269;-47
2022/05/02 09:57:17;;;;;;;5.25;3.90;;;;;;;14.61;59.70;101526.72;4995904;28;102422;-48
2022/05/02 09:59:48;;;;;;;5.75;3.63;;;;;;;14.60;58.61;101530.53;4997490;28;103990;-47
2022/05/02 10:02:20;;;;;;;4.75;3.33;;;;;;;14.59;58.95;101523.41;4997202;28;102609;-47
2022/05/02 10:04:53;;;;;;;8.20;3.85;;;;;;;14.59;58.98;101528.09;5001368;28;102424;-47
2022/05/02 10:07:24;;;;;;;7.82;3.63;;;;;;;14.59;59.54;101528.09;4993151;28;102041;-48
2022/05/02 10:10:02;;;;;;;6.22;3.47;;;;;;;14.59;59.35;101528.91;4991732;28;103941;-46
2022/05/02 10:12:42;;;;;;;8.73;3.55;;;;;;;14.60;59.00;101532.47;4991870;28;101990;-48
2022/05/02 10:15:35;;;;;;;6.22;3.80;;;;;;;14.60;59.85;101527.78;4999585;28;102609;-47
2022/05/02 10:18:23;;;;;;;5.00;3.88;;;;;;;14.59;59.54;101520.69;5001459;28;102410;-47
2022/05/02 10:21:02;;;;;;;7.20;4.20;;;;;;;14.59;59.37;101523.41;4998450;28;103819;-49
2022/05/02 10:23:46;;;;;;;7.63;4.30;;;;;;;14.61;60.22;101514.94;4998405;27;102426;-46
2022/05/02 10:26:27;;;;;;;4.85;3.63;;;;;;;14.61;59.01;101515.75;5004954;28;102374;-48
2022/05/02 10:29:31;;;;;;;5.18;3.72;;;;;;;14.60;60.01;101511.34;4999684;28;102033;-46
2022/05/02 10:32:04;;;;;;;5.93;3.90;;;;;;;14.62;60.46;101513.84;4990177;28;104041;-47
2022/05/02 10:34:33;;;;;;;5.40;3.45;;;;;;;14.62;59.38;101509.16;5008440;28;102268;-48
2022/05/02 10:37:05;;;;;;;5.78;3.70;;;;;;;14.63;59.13;101515.47;5000441;28;102133;-48
2022/05/02 10:39:38;;;;;;;7.88;3.65;;;;;;;14.62;59.41;101505.63;4992957;28;102656;-48
2022/05/02 10:42:08;;;;;;;3.38;3.08;;;;;;;14.62;58.54;101506.44;4991697;28;103883;-47
2022/05/02 10:44:47;;;;;;;6.93;3.70;;;;;;;14.65;58.86;101505.88;5008956;28;102084;-48
2022/05/02 10:47:18;;;;;;;7.32;3.75;;;;;;;14.65;57.70;101500.41;5004532;27;102317;-47
2022/05/02 10:50:07;;;;;;;5.38;3.80;;;;;;;14.66;58.58;101509.44;4992171;28;102890;-48
2022/05/02 10:52:48;;;;;;;4.18;3.28;;;;;;;14.65;58.29;101494.09;4995929;28;104070;-49
2022/05/02 10:55:24;;;;;;;4.38;3.30;;;;;;;14.66;58.13;101501.22;4995979;28;102601;-45
2022/05/02 10:57:53;;;;;;;4.43;2.85;;;;;;;14.66;57.76;101493.81;5009072;28;102190;-48
2022/05/02 11:00:21;;;;;;;5.30;2.95;;;;;;;14.67;56.96;101486.41;5010819;28;102437;-48
2022/05/02 11:03:03;;;;;;;;;;;;;;;14.65;57.81;101486.69;5011166;27;103926;-47
2022/05/02 11:05:36;;;;;;;7.88;3.33;;;;;;;14.66;57.60;101485.59;5003869;28;101960;-48
2022/05/02 11:08:12;;;;;;;7.07;2.97;;;;;;;14.66;58.10;101482.84;5002396;28;105140;-48
2022/05/02 11:10:46;;;;;;;5.35;3.10;;;;;;;14.65;57.48;101483.97;4995240;28;102201;-48
2022/05/02 11:13:23;;;;;;;4.78;2.92;;;;;;;14.65;57.17;101483.16;5003631;28;104198;-46
2022/05/02 11:16:01;;;;;;;4.15;2.92;;;;;;;14.67;57.25;101491.88;5011272;28;101885;-49
2022/05/02 11:21:41;;;;;;;6.50;2.58;;;;;;;14.66;57.02;101485.59;5004154;28;102598;-47
2022/05/02 11:24:24;;;;;;;4.40;2.90;;;;;;;14.66;57.60;101482.84;5011551;28;104144;-48
2022/05/02 11:27:00;;;;;;;5.07;3.00;;;;;;;14.66;57.57;101480.13;4999584;28;102256;-47
2022/05/02 11:29:37;;;;;;;6.03;2.83;;;;;;;14.65;56.99;101475.75;5002199;28;102375;-46
2022/05/02 11:32:06;;;;;;;7.65;3.10;;;;;;;14.65;56.32;101473.00;5007290;28;102484;-48
2022/05/02 11:34:43;;;;;;;7.90;2.50;;;;;;;14.65;56.64;101462.03;4996039;28;104050;-46
2022/05/02 11:37:20;;;;;;;2.83;2.53;;;;;;;14.66;56.47;101469.16;4997063;28;102335;-47
2022/05/02 11:39:54;;;;;;;4.18;2.40;;;;;;;14.66;56.00;101463.69;5011995;28;102388;-46
2022/05/02 11:42:26;;;;;;;3.70;2.50;;;;;;;14.70;55.36;101457.63;5010721;28;102258;-48
2022/05/02 11:45:08;;;;;;;3.55;2.05;;;;;;;14.68;55.34;101455.19;5013471;27;103931;-48
2022/05/02 11:47:53;;;;;;;3.13;2.30;;;;;;;14.66;55.28;101444.50;5010400;28;102333;-47
2022/05/02 11:50:21;;;;;;;3.92;1.98;;;;;;;14.66;54.53;101440.94;5012413;28;102440;-47
2022/05/02 11:52:51;;;;;;;3.83;2.63;;;;;;;14.65;54.69;101437.38;5009104;28;102093;-47
2022/05/02 11:55:26;;;;;;;2.92;2.13;;;;;;;14.65;54.39;101434.66;5005240;28;103879;-47
2022/05/02 11:58:02;;;;;;;2.45;1.90;;;;;;;14.66;54.18;101436.28;5014492;28;101808;-47
2022/05/02 12:00:35;;;;;;;5.00;2.10;;;;;;;14.63;54.51;101436.84;5007115;28;101976;-47
2022/05/02 12:03:10;;;;;;;3.30;2.13;;;;;;;14.64;53.42;101422.06;4995279;28;102504;-47
2022/05/02 12:05:39;;;;;;;4.15;2.08;;;;;;;14.64;53.15;101419.31;4992949;28;103883;-48
2022/05/02 12:08:09;;;;;;;5.75;2.47;;;;;;;14.66;52.86;101425.31;4994427;28;102314;-48
2022/05/02 12:10:40;;;;;;;3.50;2.30;;;;;;;14.65;53.26;101423.69;5007208;28;102194;-48
2022/05/02 12:13:13;;;;;;;6.10;2.47;;;;;;;14.65;53.83;101415.47;5013581;28;102026;-48
2022/05/02 12:15:56;;;;;;;3.28;1.95;;;;;;;14.66;54.23;101413.56;4993086;28;103892;-47
2022/05/02 12:18:37;;;;;;;4.93;2.53;;;;;;;14.66;53.91;101408.06;4994194;28;101857;-47